TimeCST,TemperatureF,Dew PointF,Humidity,Sea Level PressureIn,VisibilityMPH,Wind Direction,Wind SpeedMPH,Gust SpeedMPH,PrecipitationIn,Events,Conditions,WindDirDegrees,DateUTC
12:15 AM,24.8,15.8,69,30.23,5.0,Calm,Calm,-,N/A,,Overcast,0,2013-12-06 06:15:00
12:35 AM,23.0,15.8,74,30.24,3.0,Calm,Calm,-,N/A,,Overcast,0,2013-12-06 06:35:00
12:55 AM,21.2,15.8,80,30.21,3.0,Calm,Calm,-,N/A,,Overcast,0,2013-12-06 06:55:00
1:15 AM,21.2,14.0,74,30.21,1.8,Calm,Calm,-,N/A,,Overcast,0,2013-12-06 07:15:00
1:35 AM,21.2,14.0,74,30.22,1.8,Calm,Calm,-,N/A,,Overcast,0,2013-12-06 07:35:00
1:55 AM,21.2,14.0,74,30.22,1.8,Calm,Calm,-,N/A,,Overcast,0,2013-12-06 07:55:00
2:15 AM,21.2,14.0,74,30.22,3.0,Calm,Calm,-,N/A,,Mostly Cloudy,0,2013-12-06 08:15:00
2:35 AM,21.2,12.2,68,30.21,2.5,Calm,Calm,-,N/A,,Overcast,0,2013-12-06 08:35:00
2:55 AM,21.2,12.2,68,30.21,2.5,Calm,Calm,-,N/A,,Overcast,0,2013-12-06 08:55:00
3:15 AM,21.2,12.2,68,30.20,2.0,Calm,Calm,-,N/A,,Overcast,0,2013-12-06 09:15:00
3:35 AM,21.2,12.2,68,30.21,5.0,Calm,Calm,-,N/A,,Mostly Cloudy,0,2013-12-06 09:35:00
3:55 AM,21.2,12.2,68,30.20,3.0,Calm,Calm,-,N/A,,Overcast,0,2013-12-06 09:55:00
4:15 AM,21.2,12.2,68,30.21,1.8,Calm,Calm,-,N/A,,Overcast,0,2013-12-06 10:15:00
4:35 AM,21.2,12.2,68,30.21,2.0,Calm,Calm,-,N/A,,Overcast,0,2013-12-06 10:35:00
4:55 AM,21.2,12.2,68,30.21,1.5,Calm,Calm,-,N/A,,Overcast,0,2013-12-06 10:55:00
5:15 AM,21.2,12.2,68,30.21,1.2,Calm,Calm,-,N/A,,Overcast,0,2013-12-06 11:15:00
5:35 AM,21.2,12.2,68,30.23,1.5,Calm,Calm,-,N/A,,Overcast,0,2013-12-06 11:35:00
5:55 AM,21.2,12.2,68,30.24,1.2,Calm,Calm,-,N/A,,Overcast,0,2013-12-06 11:55:00
6:15 AM,21.2,12.2,68,30.24,1.5,Calm,Calm,-,N/A,,Overcast,0,2013-12-06 12:15:00
6:35 AM,21.2,12.2,68,30.25,1.0,Calm,Calm,-,N/A,,Overcast,0,2013-12-06 12:35:00
6:55 AM,19.4,12.2,74,30.26,1.0,Calm,Calm,-,N/A,,Overcast,0,2013-12-06 12:55:00
7:15 AM,19.4,12.2,74,30.27,0.8,Calm,Calm,-,N/A,,Overcast,0,2013-12-06 13:15:00
7:35 AM,19.4,14.0,80,30.29,0.5,Calm,Calm,-,N/A,,Overcast,0,2013-12-06 13:35:00
7:55 AM,19.4,12.2,74,30.27,0.5,Calm,Calm,-,N/A,,Overcast,0,2013-12-06 13:55:00
8:15 AM,19.4,12.2,74,30.27,0.5,Calm,Calm,-,N/A,,Overcast,0,2013-12-06 14:15:00
8:35 AM,19.4,12.2,74,30.26,0.5,Calm,Calm,-,N/A,,Overcast,0,2013-12-06 14:35:00
8:55 AM,21.2,12.2,68,30.27,1.0,Calm,Calm,-,N/A,,Overcast,0,2013-12-06 14:55:00
9:15 AM,21.2,12.2,68,30.30,1.8,Calm,Calm,-,N/A,,Overcast,0,2013-12-06 15:15:00
9:35 AM,21.2,12.2,68,30.31,1.2,Calm,Calm,-,N/A,,Overcast,0,2013-12-06 15:35:00
9:55 AM,21.2,12.2,68,30.30,1.0,Calm,Calm,-,N/A,,Overcast,0,2013-12-06 15:55:00
10:15 AM,21.2,12.2,68,30.31,0.5,Calm,Calm,-,N/A,,Overcast,0,2013-12-06 16:15:00
10:35 AM,21.2,14.0,74,30.31,1.5,Calm,Calm,-,N/A,,Overcast,0,2013-12-06 16:35:00
10:55 AM,21.2,12.2,68,30.32,1.8,Calm,Calm,-,N/A,,Overcast,0,2013-12-06 16:55:00
11:15 AM,21.2,12.2,68,30.30,1.0,Calm,Calm,-,N/A,,Overcast,0,2013-12-06 17:15:00
11:35 AM,21.2,14.0,74,30.32,1.5,Calm,Calm,-,N/A,,Overcast,0,2013-12-06 17:35:00
11:55 AM,21.2,14.0,74,30.31,0.8,Calm,Calm,-,N/A,,Overcast,0,2013-12-06 17:55:00
12:15 PM,21.2,14.0,74,30.32,1.2,Calm,Calm,-,N/A,,Overcast,0,2013-12-06 18:15:00
12:35 PM,21.2,14.0,74,30.29,0.5,Calm,Calm,-,N/A,,Overcast,0,2013-12-06 18:35:00
12:55 PM,21.2,14.0,74,30.31,0.8,Calm,Calm,-,N/A,,Overcast,0,2013-12-06 18:55:00
1:15 PM,21.2,14.0,74,30.33,0.8,Calm,Calm,-,N/A,,Overcast,0,2013-12-06 19:15:00
1:35 PM,21.2,14.0,74,30.30,0.8,Calm,Calm,-,N/A,,Overcast,0,2013-12-06 19:35:00
1:55 PM,21.2,14.0,74,30.31,0.8,Calm,Calm,-,N/A,,Overcast,0,2013-12-06 19:55:00
2:15 PM,21.2,12.2,68,30.31,1.8,Calm,Calm,-,N/A,,Overcast,0,2013-12-06 20:15:00
2:35 PM,21.2,15.8,80,30.31,1.5,Calm,Calm,-,N/A,,Overcast,0,2013-12-06 20:35:00
2:55 PM,21.2,14.0,74,30.31,4.0,Calm,Calm,-,N/A,,Overcast,0,2013-12-06 20:55:00
3:15 PM,21.2,12.2,68,30.33,7.0,Calm,Calm,-,N/A,,Overcast,0,2013-12-06 21:15:00
3:35 PM,21.2,12.2,68,30.33,10.0,Calm,Calm,-,N/A,,Mostly Cloudy,0,2013-12-06 21:35:00
3:55 PM,21.2,12.2,68,30.34,9.0,Calm,Calm,-,N/A,,Overcast,0,2013-12-06 21:55:00
4:15 PM,21.2,12.2,68,30.35,2.0,Calm,Calm,-,N/A,,Overcast,0,2013-12-06 22:15:00
4:35 PM,21.2,14.0,74,30.36,1.2,Calm,Calm,-,N/A,,Overcast,0,2013-12-06 22:35:00
4:55 PM,21.2,12.2,68,30.38,1.8,Calm,Calm,-,N/A,,Overcast,0,2013-12-06 22:55:00
5:15 PM,21.2,12.2,68,30.38,2.5,Calm,Calm,-,N/A,,Overcast,0,2013-12-06 23:15:00
5:35 PM,21.2,12.2,68,30.40,5.0,Calm,Calm,-,N/A,,Overcast,0,2013-12-06 23:35:00
5:55 PM,21.2,12.2,68,30.41,9.0,Calm,Calm,-,N/A,,Overcast,0,2013-12-06 23:55:00
6:15 PM,21.2,12.2,68,30.42,3.0,Calm,Calm,-,N/A,,Overcast,0,2013-12-07 00:15:00
6:35 PM,21.2,12.2,68,30.43,3.0,Calm,Calm,-,N/A,,Overcast,0,2013-12-07 00:35:00
6:55 PM,21.2,12.2,68,30.44,2.5,Calm,Calm,-,N/A,,Overcast,0,2013-12-07 00:55:00
7:15 PM,21.2,12.2,68,30.45,3.0,Calm,Calm,-,N/A,,Overcast,0,2013-12-07 01:15:00
7:35 PM,21.2,12.2,68,30.46,6.0,Calm,Calm,-,N/A,,Overcast,0,2013-12-07 01:35:00
7:55 PM,21.2,12.2,68,30.46,10.0,Calm,Calm,-,N/A,,Overcast,0,2013-12-07 01:55:00
8:15 PM,21.2,12.2,68,30.47,10.0,Calm,Calm,-,N/A,,Mostly Cloudy,0,2013-12-07 02:15:00
8:35 PM,21.2,12.2,68,30.48,10.0,Calm,Calm,-,N/A,,Mostly Cloudy,0,2013-12-07 02:35:00
8:55 PM,21.2,10.4,63,30.49,10.0,Calm,Calm,-,N/A,,Overcast,0,2013-12-07 02:55:00
9:15 PM,21.2,8.6,58,30.49,10.0,Calm,Calm,-,N/A,,Overcast,0,2013-12-07 03:15:00
9:35 PM,21.2,8.6,58,30.49,10.0,Calm,Calm,-,N/A,,Overcast,0,2013-12-07 03:35:00
9:55 PM,21.2,6.8,54,30.50,10.0,Calm,Calm,-,N/A,,Overcast,0,2013-12-07 03:55:00
10:15 PM,19.4,8.6,63,30.51,10.0,Calm,Calm,-,N/A,,Overcast,0,2013-12-07 04:15:00
10:35 PM,19.4,6.8,58,30.52,10.0,Calm,Calm,-,N/A,,Overcast,0,2013-12-07 04:35:00
10:55 PM,19.4,6.8,58,30.52,10.0,Calm,Calm,-,N/A,,Overcast,0,2013-12-07 04:55:00
11:15 PM,19.4,6.8,58,30.53,10.0,Calm,Calm,-,N/A,,Overcast,0,2013-12-07 05:15:00
11:35 PM,19.4,5.0,54,30.52,10.0,North,-9999.0,-,N/A,,Overcast,0,2013-12-07 05:35:00
11:55 PM,19.4,5.0,54,30.53,10.0,North,-9999.0,-,N/A,,Overcast,0,2013-12-07 05:55:00